Aviation Digital Data Service (ADDS)

Output produced by METARs form (1856 UTC 02 September 2014)
found at http://aviationweather.gov/adds/metars/
 
KATL 021722Z 0218/0324 27006KT P6SM VCSH SCT040 
     TEMPO 0218/0222 VRB15G30KT 2SM TSRA BKN045CB 
     FM030100 25003KT P6SM BKN150 
     FM031500 30005KT P6SM SCT035 
     FM031900 26005KT P6SM BKN045 
     PROB30 0319/0323 4SM -TSRA BKN040CB